sensor_id;sensor_type;location;lat;lon;timestamp;pressure;altitude;pressure_sealevel;temperature;humidity
50105;BME280;47690;39.202;-77.198;2023-11-19T00:01:29;99862.00;;;12.91;34.47
50105;BME280;47690;39.202;-77.198;2023-11-19T00:03:58;99860.34;;;12.88;34.62
50105;BME280;47690;39.202;-77.198;2023-11-19T00:06:27;99854.47;;;12.83;34.55
50105;BME280;47690;39.202;-77.198;2023-11-19T00:08:57;99854.59;;;12.78;34.60
50105;BME280;47690;39.202;-77.198;2023-11-19T00:11:26;99853.97;;;12.72;34.71
50105;BME280;47690;39.202;-77.198;2023-11-19T00:13:55;99851.44;;;12.68;34.78
50105;BME280;47690;39.202;-77.198;2023-11-19T00:16:24;99851.53;;;12.67;34.95
50105;BME280;47690;39.202;-77.198;2023-11-19T00:18:53;99863.59;;;12.66;34.99
50105;BME280;47690;39.202;-77.198;2023-11-19T00:21:22;99860.22;;;12.64;34.70
50105;BME280;47690;39.202;-77.198;2023-11-19T00:23:53;99856.84;;;12.62;34.74
50105;BME280;47690;39.202;-77.198;2023-11-19T00:26:23;99858.66;;;12.59;34.70
50105;BME280;47690;39.202;-77.198;2023-11-19T00:28:53;99856.94;;;12.57;34.60
50105;BME280;47690;39.202;-77.198;2023-11-19T00:31:21;99858.78;;;12.54;34.44
50105;BME280;47690;39.202;-77.198;2023-11-19T00:33:50;99868.34;;;12.50;34.45
50105;BME280;47690;39.202;-77.198;2023-11-19T00:36:19;99863.16;;;12.52;34.41
50105;BME280;47690;39.202;-77.198;2023-11-19T00:38:51;99858.78;;;12.54;34.47
50105;BME280;47690;39.202;-77.198;2023-11-19T00:41:26;99866.06;;;12.69;33.00
50105;BME280;47690;39.202;-77.198;2023-11-19T00:43:56;99859.41;;;12.62;34.25
50105;BME280;47690;39.202;-77.198;2023-11-19T00:46:30;99857.09;;;12.53;33.94
50105;BME280;47690;39.202;-77.198;2023-11-19T00:49:08;99856.31;;;12.49;34.47
50105;BME280;47690;39.202;-77.198;2023-11-19T00:51:36;99858.22;;;12.44;34.49
50105;BME280;47690;39.202;-77.198;2023-11-19T00:54:12;99861.50;;;12.49;34.41
50105;BME280;47690;39.202;-77.198;2023-11-19T00:56:40;99865.72;;;12.52;34.63
50105;BME280;47690;39.202;-77.198;2023-11-19T00:59:10;99876.16;;;12.49;34.43
50105;BME280;47690;39.202;-77.198;2023-11-19T01:01:39;99880.50;;;12.47;34.38
50105;BME280;47690;39.202;-77.198;2023-11-19T01:04:08;99867.78;;;12.40;34.31
50105;BME280;47690;39.202;-77.198;2023-11-19T01:06:38;99872.22;;;12.35;34.27
50105;BME280;47690;39.202;-77.198;2023-11-19T01:09:17;99867.09;;;12.34;34.37
50105;BME280;47690;39.202;-77.198;2023-11-19T01:11:47;99883.53;;;12.31;34.31
50105;BME280;47690;39.202;-77.198;2023-11-19T01:14:16;99876.63;;;12.32;34.51
50105;BME280;47690;39.202;-77.198;2023-11-19T01:16:46;99869.81;;;12.29;34.33
50105;BME280;47690;39.202;-77.198;2023-11-19T01:19:16;99866.28;;;12.33;34.44
50105;BME280;47690;39.202;-77.198;2023-11-19T01:21:45;99879.88;;;12.38;34.35
50105;BME280;47690;39.202;-77.198;2023-11-19T01:24:15;99874.81;;;12.35;34.25
50105;BME280;47690;39.202;-77.198;2023-11-19T01:26:44;99883.50;;;12.33;34.23
50105;BME280;47690;39.202;-77.198;2023-11-19T01:29:14;99875.88;;;12.28;34.43
50105;BME280;47690;39.202;-77.198;2023-11-19T01:31:45;99875.16;;;12.23;34.12
50105;BME280;47690;39.202;-77.198;2023-11-19T01:34:15;99884.59;;;12.24;34.34
50105;BME280;47690;39.202;-77.198;2023-11-19T01:36:49;99884.56;;;12.25;34.38
50105;BME280;47690;39.202;-77.198;2023-11-19T01:39:18;99881.09;;;12.26;34.33
50105;BME280;47690;39.202;-77.198;2023-11-19T01:41:48;99883.66;;;12.26;34.16
50105;BME280;47690;39.202;-77.198;2023-11-19T01:44:17;99876.78;;;12.27;34.32
50105;BME280;47690;39.202;-77.198;2023-11-19T01:46:47;99874.13;;;12.28;34.15
50105;BME280;47690;39.202;-77.198;2023-11-19T01:49:19;99876.81;;;12.25;34.05
50105;BME280;47690;39.202;-77.198;2023-11-19T01:51:48;99882.88;;;12.24;34.17
50105;BME280;47690;39.202;-77.198;2023-11-19T01:54:28;99884.56;;;12.25;34.31
50105;BME280;47690;39.202;-77.198;2023-11-19T01:56:57;99890.53;;;12.27;34.30
50105;BME280;47690;39.202;-77.198;2023-11-19T01:59:26;99884.53;;;12.27;34.27
50105;BME280;47690;39.202;-77.198;2023-11-19T02:01:55;99887.94;;;12.27;34.19
50105;BME280;47690;39.202;-77.198;2023-11-19T02:04:28;99877.84;;;12.20;34.35
50105;BME280;47690;39.202;-77.198;2023-11-19T02:06:58;99883.03;;;12.18;34.36
50105;BME280;47690;39.202;-77.198;2023-11-19T02:09:36;99886.47;;;12.19;34.39
50105;BME280;47690;39.202;-77.198;2023-11-19T02:12:07;99883.06;;;12.16;34.39
50105;BME280;47690;39.202;-77.198;2023-11-19T02:14:36;99884.84;;;12.14;34.59
50105;BME280;47690;39.202;-77.198;2023-11-19T02:17:06;99873.75;;;12.11;34.52
50105;BME280;47690;39.202;-77.198;2023-11-19T02:19:41;99871.91;;;12.16;34.35
50105;BME280;47690;39.202;-77.198;2023-11-19T02:22:11;99871.09;;;12.14;34.51
50105;BME280;47690;39.202;-77.198;2023-11-19T02:24:40;99866.88;;;12.11;34.43
50105;BME280;47690;39.202;-77.198;2023-11-19T02:27:16;99870.25;;;12.13;34.08
50105;BME280;47690;39.202;-77.198;2023-11-19T02:30:09;99883.00;;;12.20;33.83
50105;BME280;47690;39.202;-77.198;2023-11-19T02:32:38;99883.94;;;12.17;34.47
50105;BME280;47690;39.202;-77.198;2023-11-19T02:35:09;99892.59;;;12.14;34.41
50105;BME280;47690;39.202;-77.198;2023-11-19T02:37:39;99889.16;;;12.14;34.58
50105;BME280;47690;39.202;-77.198;2023-11-19T02:40:09;99890.94;;;12.12;34.48
50105;BME280;47690;39.202;-77.198;2023-11-19T02:42:40;99900.44;;;12.11;34.52
50105;BME280;47690;39.202;-77.198;2023-11-19T02:45:10;99897.88;;;12.10;34.48
50105;BME280;47690;39.202;-77.198;2023-11-19T02:52:35;99914.19;;;12.12;34.40
50105;BME280;47690;39.202;-77.198;2023-11-19T02:55:08;99920.34;;;12.08;34.57
50105;BME280;47690;39.202;-77.198;2023-11-19T02:57:42;99923.84;;;12.05;34.64
50105;BME280;47690;39.202;-77.198;2023-11-19T03:00:21;99931.75;;;11.97;34.42
50105;BME280;47690;39.202;-77.198;2023-11-19T03:08:55;99939.19;;;11.75;34.77
50105;BME280;47690;39.202;-77.198;2023-11-19T03:11:26;99948.78;;;11.70;34.88
50105;BME280;47690;39.202;-77.198;2023-11-19T03:13:56;99954.97;;;11.63;34.72
50105;BME280;47690;39.202;-77.198;2023-11-19T03:16:25;99944.88;;;11.53;35.05
50105;BME280;47690;39.202;-77.198;2023-11-19T03:18:55;99950.22;;;11.44;35.03
50105;BME280;47690;39.202;-77.198;2023-11-19T03:21:31;99948.59;;;11.41;35.07
50105;BME280;47690;39.202;-77.198;2023-11-19T03:24:05;99948.69;;;11.37;35.07
50105;BME280;47690;39.202;-77.198;2023-11-19T03:26:35;99946.19;;;11.33;35.19
50105;BME280;47690;39.202;-77.198;2023-11-19T03:29:06;99946.28;;;11.30;35.04
50105;BME280;47690;39.202;-77.198;2023-11-19T03:31:42;99938.53;;;11.30;35.07
50105;BME280;47690;39.202;-77.198;2023-11-19T03:34:12;99934.25;;;11.29;35.25
50105;BME280;47690;39.202;-77.198;2023-11-19T03:36:42;99927.38;;;11.28;35.02
50105;BME280;47690;39.202;-77.198;2023-11-19T03:39:12;99920.50;;;11.29;35.17
50105;BME280;47690;39.202;-77.198;2023-11-19T03:41:41;99914.56;;;11.27;35.35
50105;BME280;47690;39.202;-77.198;2023-11-19T03:44:15;99915.47;;;11.24;35.38
50105;BME280;47690;39.202;-77.198;2023-11-19T03:46:47;99913.78;;;11.23;35.40
50105;BME280;47690;39.202;-77.198;2023-11-19T03:49:17;99908.66;;;11.20;35.35
50105;BME280;47690;39.202;-77.198;2023-11-19T03:51:47;99902.78;;;11.15;35.18
50105;BME280;47690;39.202;-77.198;2023-11-19T03:54:19;99906.31;;;11.11;35.12
50105;BME280;47690;39.202;-77.198;2023-11-19T03:56:51;99909.91;;;11.03;35.50
50105;BME280;47690;39.202;-77.198;2023-11-19T03:59:20;99917.75;;;10.99;35.41
50105;BME280;47690;39.202;-77.198;2023-11-19T04:01:49;99917.31;;;10.79;35.24
50105;BME280;47690;39.202;-77.198;2023-11-19T04:04:22;99913.28;;;10.66;35.56
50105;BME280;47690;39.202;-77.198;2023-11-19T04:06:51;99916.19;;;10.49;35.60
50105;BME280;47690;39.202;-77.198;2023-11-19T04:09:21;99930.06;;;10.40;35.55
50105;BME280;47690;39.202;-77.198;2023-11-19T04:11:51;99925.00;;;10.35;35.55
50105;BME280;47690;39.202;-77.198;2023-11-19T04:14:20;99927.63;;;10.34;35.57
50105;BME280;47690;39.202;-77.198;2023-11-19T04:16:51;99931.06;;;10.33;35.70
50105;BME280;47690;39.202;-77.198;2023-11-19T04:19:22;99930.31;;;10.28;35.72
50105;BME280;47690;39.202;-77.198;2023-11-19T04:21:52;99929.63;;;10.18;35.93
50105;BME280;47690;39.202;-77.198;2023-11-19T04:24:23;99926.28;;;10.14;36.08
50105;BME280;47690;39.202;-77.198;2023-11-19T04:26:56;99930.63;;;10.12;36.05
50105;BME280;47690;39.202;-77.198;2023-11-19T04:29:25;99928.94;;;10.09;36.24
50105;BME280;47690;39.202;-77.198;2023-11-19T04:31:56;99927.25;;;10.08;35.97
50105;BME280;47690;39.202;-77.198;2023-11-19T04:34:26;99929.09;;;10.00;36.32
50105;BME280;47690;39.202;-77.198;2023-11-19T04:36:56;99936.06;;;9.95;36.50
50105;BME280;47690;39.202;-77.198;2023-11-19T04:39:25;99930.16;;;9.88;36.46
50105;BME280;47690;39.202;-77.198;2023-11-19T04:41:56;99931.97;;;9.83;36.47
50105;BME280;47690;39.202;-77.198;2023-11-19T04:44:25;99936.41;;;9.75;36.24
50105;BME280;47690;39.202;-77.198;2023-11-19T04:46:56;99938.13;;;9.73;36.65
50105;BME280;47690;39.202;-77.198;2023-11-19T04:49:25;99939.97;;;9.66;36.42
50105;BME280;47690;39.202;-77.198;2023-11-19T04:51:57;99935.66;;;9.66;36.68
50105;BME280;47690;39.202;-77.198;2023-11-19T04:54:27;99935.63;;;9.69;36.60
50105;BME280;47690;39.202;-77.198;2023-11-19T04:56:57;99936.44;;;9.70;36.41
50105;BME280;47690;39.202;-77.198;2023-11-19T04:59:27;99932.19;;;9.69;36.57
50105;BME280;47690;39.202;-77.198;2023-11-19T05:01:56;99927.91;;;9.69;36.68
50105;BME280;47690;39.202;-77.198;2023-11-19T05:04:26;99936.44;;;9.70;36.35
50105;BME280;47690;39.202;-77.198;2023-11-19T05:06:55;99934.75;;;9.69;36.28
50105;BME280;47690;39.202;-77.198;2023-11-19T05:09:25;99940.78;;;9.66;36.67
50105;BME280;47690;39.202;-77.198;2023-11-19T05:11:55;99935.69;;;9.65;36.57
50105;BME280;47690;39.202;-77.198;2023-11-19T05:14:25;99946.00;;;9.63;36.85
50105;BME280;47690;39.202;-77.198;2023-11-19T05:16:55;99944.38;;;9.57;36.57
50105;BME280;47690;39.202;-77.198;2023-11-19T05:19:24;99942.72;;;9.53;36.35
50105;BME280;47690;39.202;-77.198;2023-11-19T05:21:54;99950.53;;;9.47;36.64
50105;BME280;47690;39.202;-77.198;2023-11-19T05:24:23;99954.06;;;9.40;36.39
50105;BME280;47690;39.202;-77.198;2023-11-19T05:26:54;99951.66;;;9.29;36.74
50105;BME280;47690;39.202;-77.198;2023-11-19T05:29:23;99957.78;;;9.20;36.60
50105;BME280;47690;39.202;-77.198;2023-11-19T05:31:53;99956.13;;;9.14;36.09
50105;BME280;47690;39.202;-77.198;2023-11-19T05:34:25;99957.00;;;9.13;37.01
50105;BME280;47690;39.202;-77.198;2023-11-19T05:36:55;99959.59;;;9.13;36.62
50105;BME280;47690;39.202;-77.198;2023-11-19T05:39:24;99972.47;;;9.10;36.84
50105;BME280;47690;39.202;-77.198;2023-11-19T05:41:53;99979.38;;;9.08;36.66
50105;BME280;47690;39.202;-77.198;2023-11-19T05:44:22;99974.25;;;9.05;37.06
50105;BME280;47690;39.202;-77.198;2023-11-19T05:46:51;99977.72;;;9.02;36.61
50105;BME280;47690;39.202;-77.198;2023-11-19T05:49:29;99995.75;;;9.01;36.73
50105;BME280;47690;39.202;-77.198;2023-11-19T05:51:58;99988.03;;;8.99;36.96
50105;BME280;47690;39.202;-77.198;2023-11-19T05:54:27;99991.50;;;8.97;36.79
50105;BME280;47690;39.202;-77.198;2023-11-19T05:56:58;99994.94;;;8.96;36.59
50105;BME280;47690;39.202;-77.198;2023-11-19T05:59:27;99993.25;;;8.95;37.05
50105;BME280;47690;39.202;-77.198;2023-11-19T06:02:00;99988.94;;;8.95;37.41
50105;BME280;47690;39.202;-77.198;2023-11-19T06:04:31;99994.13;;;8.92;37.19
50105;BME280;47690;39.202;-77.198;2023-11-19T06:07:06;100003.59;;;8.85;37.37
50105;BME280;47690;39.202;-77.198;2023-11-19T06:09:35;100003.59;;;8.85;37.09
50105;BME280;47690;39.202;-77.198;2023-11-19T06:12:05;100004.53;;;8.80;37.08
50105;BME280;47690;39.202;-77.198;2023-11-19T06:14:35;100010.59;;;8.72;37.06
50105;BME280;47690;39.202;-77.198;2023-11-19T06:17:05;100008.97;;;8.65;37.52
50105;BME280;47690;39.202;-77.198;2023-11-19T06:19:35;100009.03;;;8.64;37.60
50105;BME280;47690;39.202;-77.198;2023-11-19T06:22:04;100016.72;;;8.64;37.85
50105;BME280;47690;39.202;-77.198;2023-11-19T06:24:33;100009.03;;;8.64;37.48
50105;BME280;47690;39.202;-77.198;2023-11-19T06:27:05;100011.53;;;8.67;37.80
50105;BME280;47690;39.202;-77.198;2023-11-19T06:29:34;100009.78;;;8.70;37.75
50105;BME280;47690;39.202;-77.198;2023-11-19T06:32:06;100020.00;;;8.75;37.93
50105;BME280;47690;39.202;-77.198;2023-11-19T06:34:43;100020.88;;;8.76;37.93
50105;BME280;47690;39.202;-77.198;2023-11-19T06:37:12;100017.47;;;8.72;37.82
50105;BME280;47690;39.202;-77.198;2023-11-19T06:39:42;100018.31;;;8.72;37.49
50105;BME280;47690;39.202;-77.198;2023-11-19T06:42:11;100016.63;;;8.70;37.66
50105;BME280;47690;39.202;-77.198;2023-11-19T06:44:40;100018.31;;;8.74;37.90
50105;BME280;47690;39.202;-77.198;2023-11-19T06:47:10;100018.31;;;8.71;37.70
50105;BME280;47690;39.202;-77.198;2023-11-19T06:49:40;100015.81;;;8.68;37.83
50105;BME280;47690;39.202;-77.198;2023-11-19T06:52:09;100024.31;;;8.71;38.14
50105;BME280;47690;39.202;-77.198;2023-11-19T06:54:39;100021.81;;;8.67;38.17
50105;BME280;47690;39.202;-77.198;2023-11-19T06:57:08;100011.59;;;8.62;37.97
50105;BME280;47690;39.202;-77.198;2023-11-19T06:59:39;100032.19;;;8.57;38.23
50105;BME280;47690;39.202;-77.198;2023-11-19T07:02:09;100035.69;;;8.44;37.98
50105;BME280;47690;39.202;-77.198;2023-11-19T07:04:40;100036.69;;;8.30;38.29
50105;BME280;47690;39.202;-77.198;2023-11-19T07:07:10;100042.72;;;8.22;38.49
50105;BME280;47690;39.202;-77.198;2023-11-19T07:09:43;100035.13;;;8.14;38.58
50105;BME280;47690;39.202;-77.198;2023-11-19T07:12:13;100038.56;;;8.10;38.30
50105;BME280;47690;39.202;-77.198;2023-11-19T07:14:43;100038.59;;;8.06;38.47
50105;BME280;47690;39.202;-77.198;2023-11-19T07:17:11;100039.44;;;8.07;38.80
50105;BME280;47690;39.202;-77.198;2023-11-19T07:19:40;100042.88;;;8.07;38.36
50105;BME280;47690;39.202;-77.198;2023-11-19T07:22:10;100042.88;;;8.04;38.28
50105;BME280;47690;39.202;-77.198;2023-11-19T07:24:40;100032.69;;;7.95;38.60
50105;BME280;47690;39.202;-77.198;2023-11-19T07:27:11;100052.31;;;8.02;38.35
50105;BME280;47690;39.202;-77.198;2023-11-19T07:29:42;100049.69;;;8.07;38.57
50105;BME280;47690;39.202;-77.198;2023-11-19T07:32:11;100043.69;;;8.10;38.78
50105;BME280;47690;39.202;-77.198;2023-11-19T07:34:42;100046.25;;;8.08;39.05
50105;BME280;47690;39.202;-77.198;2023-11-19T07:37:12;100035.19;;;8.04;38.72
50105;BME280;47690;39.202;-77.198;2023-11-19T07:39:41;100034.31;;;8.07;38.81
50105;BME280;47690;39.202;-77.198;2023-11-19T07:42:11;100041.16;;;8.03;38.87
50105;BME280;47690;39.202;-77.198;2023-11-19T07:44:40;100045.50;;;7.98;38.83
50105;BME280;47690;39.202;-77.198;2023-11-19T07:47:09;100040.41;;;7.92;38.36
50105;BME280;47690;39.202;-77.198;2023-11-19T07:49:39;100038.69;;;7.94;38.85
50105;BME280;47690;39.202;-77.198;2023-11-19T07:52:10;100042.09;;;7.96;38.74
50105;BME280;47690;39.202;-77.198;2023-11-19T07:54:43;100050.59;;;8.00;39.15
50105;BME280;47690;39.202;-77.198;2023-11-19T07:57:39;100046.31;;;8.03;39.26
50105;BME280;47690;39.202;-77.198;2023-11-19T08:00:09;100050.59;;;8.03;38.89
50105;BME280;47690;39.202;-77.198;2023-11-19T08:02:41;100054.03;;;8.02;38.88
50105;BME280;47690;39.202;-77.198;2023-11-19T08:05:10;100052.31;;;8.01;38.89
50105;BME280;47690;39.202;-77.198;2023-11-19T08:07:41;100048.91;;;8.00;38.86
50105;BME280;47690;39.202;-77.198;2023-11-19T08:10:10;100054.03;;;7.99;38.66
50105;BME280;47690;39.202;-77.198;2023-11-19T08:12:40;100050.63;;;7.97;39.25
50105;BME280;47690;39.202;-77.198;2023-11-19T08:15:09;100047.28;;;7.90;39.07
50105;BME280;47690;39.202;-77.198;2023-11-19T08:17:39;100048.16;;;7.87;38.93
50105;BME280;47690;39.202;-77.198;2023-11-19T08:20:09;100043.06;;;7.83;39.31
50105;BME280;47690;39.202;-77.198;2023-11-19T08:22:40;100043.03;;;7.87;39.12
50105;BME280;47690;39.202;-77.198;2023-11-19T08:25:09;100050.72;;;7.87;39.30
50105;BME280;47690;39.202;-77.198;2023-11-19T08:27:39;100043.84;;;7.88;39.15
50105;BME280;47690;39.202;-77.198;2023-11-19T08:30:08;100050.72;;;7.87;38.99
50105;BME280;47690;39.202;-77.198;2023-11-19T08:32:39;100047.28;;;7.85;39.11
50105;BME280;47690;39.202;-77.198;2023-11-19T08:35:08;100041.34;;;7.83;38.87
50105;BME280;47690;39.202;-77.198;2023-11-19T08:37:37;100038.75;;;7.82;38.81
50105;BME280;47690;39.202;-77.198;2023-11-19T08:40:07;100042.22;;;7.79;39.27
50105;BME280;47690;39.202;-77.198;2023-11-19T08:42:39;100036.28;;;7.75;38.99
50105;BME280;47690;39.202;-77.198;2023-11-19T08:45:10;100040.53;;;7.75;38.90
50105;BME280;47690;39.202;-77.198;2023-11-19T08:47:40;100036.28;;;7.71;38.89
50105;BME280;47690;39.202;-77.198;2023-11-19T08:50:09;100026.09;;;7.64;39.10
50105;BME280;47690;39.202;-77.198;2023-11-19T08:52:42;100036.31;;;7.66;39.07
50105;BME280;47690;39.202;-77.198;2023-11-19T08:55:12;100032.91;;;7.62;39.15
50105;BME280;47690;39.202;-77.198;2023-11-19T08:57:42;100034.66;;;7.59;39.20
50105;BME280;47690;39.202;-77.198;2023-11-19T09:00:12;100035.53;;;7.55;38.86
50105;BME280;47690;39.202;-77.198;2023-11-19T09:02:43;100038.97;;;7.54;39.29
50105;BME280;47690;39.202;-77.198;2023-11-19T09:05:13;100032.16;;;7.49;39.12
50105;BME280;47690;39.202;-77.198;2023-11-19T09:07:42;100039.00;;;7.47;39.04
50105;BME280;47690;39.202;-77.198;2023-11-19T09:10:12;100037.31;;;7.45;38.89
50105;BME280;47690;39.202;-77.198;2023-11-19T09:12:41;100033.06;;;7.39;39.11
50105;BME280;47690;39.202;-77.198;2023-11-19T09:15:10;100025.38;;;7.39;38.87
50105;BME280;47690;39.202;-77.198;2023-11-19T09:17:39;100029.66;;;7.37;39.18
50105;BME280;47690;39.202;-77.198;2023-11-19T09:20:10;100025.41;;;7.30;39.08
50105;BME280;47690;39.202;-77.198;2023-11-19T09:22:44;100022.88;;;7.27;39.09
50105;BME280;47690;39.202;-77.198;2023-11-19T09:25:14;100024.59;;;7.23;39.11
50105;BME280;47690;39.202;-77.198;2023-11-19T09:27:49;100017.78;;;7.23;39.39
50105;BME280;47690;39.202;-77.198;2023-11-19T09:30:18;100011.78;;;7.23;39.27
50105;BME280;47690;39.202;-77.198;2023-11-19T09:32:48;100022.03;;;7.23;39.58
50105;BME280;47690;39.202;-77.198;2023-11-19T09:35:17;100018.63;;;7.22;39.38
50105;BME280;47690;39.202;-77.198;2023-11-19T09:37:46;100023.75;;;7.22;39.39
50105;BME280;47690;39.202;-77.198;2023-11-19T09:40:15;100022.91;;;7.20;39.31
50105;BME280;47690;39.202;-77.198;2023-11-19T09:42:47;100029.75;;;7.20;39.34
50105;BME280;47690;39.202;-77.198;2023-11-19T09:45:17;100040.00;;;7.20;39.45
50105;BME280;47690;39.202;-77.198;2023-11-19T09:47:55;100029.75;;;7.17;39.59
50105;BME280;47690;39.202;-77.198;2023-11-19T09:50:27;100040.00;;;7.15;39.61
50105;BME280;47690;39.202;-77.198;2023-11-19T09:52:59;100038.31;;;7.11;39.53
50105;BME280;47690;39.202;-77.198;2023-11-19T09:55:30;100042.59;;;7.12;39.58
50105;BME280;47690;39.202;-77.198;2023-11-19T09:58:01;100044.28;;;7.11;39.71
50105;BME280;47690;39.202;-77.198;2023-11-19T10:00:31;100036.63;;;7.07;39.58
50105;BME280;47690;39.202;-77.198;2023-11-19T10:03:02;100046.88;;;7.10;39.63
50105;BME280;47690;39.202;-77.198;2023-11-19T10:05:34;100055.41;;;7.09;39.74
50105;BME280;47690;39.202;-77.198;2023-11-19T10:08:04;100049.44;;;7.05;39.65
50105;BME280;47690;39.202;-77.198;2023-11-19T10:10:34;100046.03;;;6.99;39.87
50105;BME280;47690;39.202;-77.198;2023-11-19T10:13:04;100052.91;;;6.92;39.77
50105;BME280;47690;39.202;-77.198;2023-11-19T10:15:36;100052.06;;;6.88;39.78
50105;BME280;47690;39.202;-77.198;2023-11-19T10:18:06;100058.03;;;6.86;39.62
50105;BME280;47690;39.202;-77.198;2023-11-19T10:20:36;100059.75;;;6.85;40.06
50105;BME280;47690;39.202;-77.198;2023-11-19T10:23:06;100058.03;;;6.82;39.67
50105;BME280;47690;39.202;-77.198;2023-11-19T10:25:41;100064.88;;;6.83;39.74
50105;BME280;47690;39.202;-77.198;2023-11-19T10:28:10;100064.88;;;6.82;39.81
50105;BME280;47690;39.202;-77.198;2023-11-19T10:30:41;100073.41;;;6.81;40.06
50105;BME280;47690;39.202;-77.198;2023-11-19T10:33:12;100071.69;;;6.81;39.90
50105;BME280;47690;39.202;-77.198;2023-11-19T10:35:56;100080.25;;;6.83;40.15
50105;BME280;47690;39.202;-77.198;2023-11-19T10:38:29;100075.97;;;6.79;39.88
50105;BME280;47690;39.202;-77.198;2023-11-19T10:41:00;100084.53;;;6.80;39.82
50105;BME280;47690;39.202;-77.198;2023-11-19T10:43:44;100081.94;;;6.77;39.93
50105;BME280;47690;39.202;-77.198;2023-11-19T10:46:14;100091.34;;;6.75;39.80
50105;BME280;47690;39.202;-77.198;2023-11-19T10:48:48;100084.53;;;6.72;39.82
50105;BME280;47690;39.202;-77.198;2023-11-19T10:51:20;100090.50;;;6.69;39.74
50105;BME280;47690;39.202;-77.198;2023-11-19T10:54:00;100080.25;;;6.63;39.98
50105;BME280;47690;39.202;-77.198;2023-11-19T10:56:32;100085.38;;;6.63;39.98
50105;BME280;47690;39.202;-77.198;2023-11-19T10:59:04;100087.09;;;6.63;40.23
50105;BME280;47690;39.202;-77.198;2023-11-19T11:01:50;100079.44;;;6.64;40.22
50105;BME280;47690;39.202;-77.198;2023-11-19T11:04:25;100091.34;;;6.62;40.10
50105;BME280;47690;39.202;-77.198;2023-11-19T11:06:58;100085.38;;;6.59;40.09
50105;BME280;47690;39.202;-77.198;2023-11-19T11:09:32;100074.31;;;6.53;40.08
50105;BME280;47690;39.202;-77.198;2023-11-19T11:12:04;100080.28;;;6.54;40.05
50105;BME280;47690;39.202;-77.198;2023-11-19T11:14:37;100076.00;;;6.51;40.45
50105;BME280;47690;39.202;-77.198;2023-11-19T11:17:09;100084.56;;;6.52;39.92
50105;BME280;47690;39.202;-77.198;2023-11-19T11:19:41;100068.34;;;6.51;40.28
50105;BME280;47690;39.202;-77.198;2023-11-19T11:22:14;100079.44;;;6.55;40.45
50105;BME280;47690;39.202;-77.198;2023-11-19T11:25:19;100076.88;;;6.58;40.48
50105;BME280;47690;39.202;-77.198;2023-11-19T11:36:45;100096.50;;;6.29;40.34
50105;BME280;47690;39.202;-77.198;2023-11-19T11:39:22;100099.91;;;6.25;40.29
50105;BME280;47690;39.202;-77.198;2023-11-19T11:45:08;100104.16;;;6.25;40.64
50105;BME280;47690;39.202;-77.198;2023-11-19T11:50:16;100105.88;;;6.26;40.60
50105;BME280;47690;39.202;-77.198;2023-11-19T11:58:19;100104.19;;;6.17;40.57
50105;BME280;47690;39.202;-77.198;2023-11-19T12:00:51;100121.22;;;6.18;40.73
50105;BME280;47690;39.202;-77.198;2023-11-19T12:03:21;100122.91;;;6.16;40.79
50105;BME280;47690;39.202;-77.198;2023-11-19T12:05:50;100126.31;;;6.15;40.78
50105;BME280;47690;39.202;-77.198;2023-11-19T12:08:26;100128.91;;;6.13;40.89
50105;BME280;47690;39.202;-77.198;2023-11-19T12:10:58;100133.13;;;6.11;40.90
50105;BME280;47690;39.202;-77.198;2023-11-19T12:13:54;100141.66;;;6.10;41.28
50105;BME280;47690;39.202;-77.198;2023-11-19T12:16:31;100146.78;;;6.10;41.05
50105;BME280;47690;39.202;-77.198;2023-11-19T12:19:06;100150.19;;;6.09;40.99
50105;BME280;47690;39.202;-77.198;2023-11-19T12:21:37;100146.78;;;6.07;40.99
50105;BME280;47690;39.202;-77.198;2023-11-19T12:24:07;100155.31;;;6.08;41.38
50105;BME280;47690;39.202;-77.198;2023-11-19T12:26:38;100158.72;;;6.08;41.06
50105;BME280;47690;39.202;-77.198;2023-11-19T12:29:08;100163.84;;;6.08;40.95
50105;BME280;47690;39.202;-77.198;2023-11-19T12:31:44;100168.94;;;6.11;41.17
50105;BME280;47690;39.202;-77.198;2023-11-19T12:34:13;100168.09;;;6.11;41.03
50105;BME280;47690;39.202;-77.198;2023-11-19T12:36:43;100174.09;;;6.14;41.16
50105;BME280;47690;39.202;-77.198;2023-11-19T12:39:13;100164.69;;;6.12;41.43
50105;BME280;47690;39.202;-77.198;2023-11-19T12:41:50;100184.31;;;6.18;41.11
50105;BME280;47690;39.202;-77.198;2023-11-19T12:44:20;100190.28;;;6.20;41.09
50105;BME280;47690;39.202;-77.198;2023-11-19T12:47:06;100188.59;;;6.20;41.13
50105;BME280;47690;39.202;-77.198;2023-11-19T12:49:38;100180.91;;;6.19;41.04
50105;BME280;47690;39.202;-77.198;2023-11-19T12:52:12;100187.72;;;6.21;41.28
50105;BME280;47690;39.202;-77.198;2023-11-19T12:54:42;100188.59;;;6.22;41.19
50105;BME280;47690;39.202;-77.198;2023-11-19T12:57:11;100177.50;;;6.21;41.11
50105;BME280;47690;39.202;-77.198;2023-11-19T12:59:41;100194.56;;;6.24;41.42
50105;BME280;47690;39.202;-77.198;2023-11-19T13:02:13;100194.56;;;6.25;41.48
50105;BME280;47690;39.202;-77.198;2023-11-19T13:04:42;100186.91;;;6.25;41.33
50105;BME280;47690;39.202;-77.198;2023-11-19T13:07:20;100182.63;;;6.27;41.59
50105;BME280;47690;39.202;-77.198;2023-11-19T13:09:49;100203.94;;;6.31;41.58
50105;BME280;47690;39.202;-77.198;2023-11-19T13:12:19;100191.16;;;6.31;41.74
50105;BME280;47690;39.202;-77.198;2023-11-19T13:14:48;100191.16;;;6.29;41.92
50105;BME280;47690;39.202;-77.198;2023-11-19T13:17:19;100195.38;;;6.20;41.81
50105;BME280;47690;39.202;-77.198;2023-11-19T13:19:49;100199.66;;;6.18;42.24
50105;BME280;47690;39.202;-77.198;2023-11-19T13:22:19;100209.91;;;6.24;42.06
50105;BME280;47690;39.202;-77.198;2023-11-19T13:24:48;100212.47;;;6.28;42.20
50105;BME280;47690;39.202;-77.198;2023-11-19T13:27:17;100220.16;;;6.35;42.19
50105;BME280;47690;39.202;-77.198;2023-11-19T13:29:47;100219.31;;;6.42;42.04
50105;BME280;47690;39.202;-77.198;2023-11-19T13:32:16;100217.63;;;6.49;42.52